createdAt,value
2018-07-02T00:01:05.601Z,40.10
2018-07-02T00:03:34.192Z,40.40
2018-07-02T00:06:13.818Z,40.60
2018-07-02T00:08:42.232Z,40.20
2018-07-02T00:11:10.645Z,40.80
2018-07-02T00:13:39.057Z,40.60
2018-07-02T00:16:07.916Z,40.60
2018-07-02T00:18:36.209Z,40.80
2018-07-02T00:21:04.617Z,40.80
2018-07-02T00:23:32.973Z,40.40
2018-07-02T00:26:01.440Z,40.80
2018-07-02T00:28:29.742Z,40.80
2018-07-02T00:30:58.080Z,40.90
2018-07-02T00:33:26.400Z,40.80
2018-07-02T00:35:54.789Z,40.80
2018-07-02T00:38:23.118Z,40.70
2018-07-02T00:40:51.628Z,41.20
2018-07-02T00:43:20.384Z,41.00
2018-07-02T00:45:48.736Z,41.00
2018-07-02T00:48:17.357Z,41.20
2018-07-02T00:50:45.986Z,40.90
2018-07-02T00:53:14.450Z,40.80
2018-07-02T00:55:44.243Z,41.20
2018-07-02T00:58:13.168Z,41.30
2018-07-02T01:00:41.452Z,41.40
2018-07-02T01:03:09.804Z,41.40
2018-07-02T01:05:38.188Z,40.90
2018-07-02T01:08:06.701Z,41.10
2018-07-02T01:10:35.084Z,41.10
2018-07-02T01:13:03.451Z,41.40
2018-07-02T01:15:31.728Z,41.30
2018-07-02T01:18:00.043Z,41.20
2018-07-02T01:20:28.349Z,41.40
2018-07-02T01:22:56.817Z,41.30
2018-07-02T01:25:25.179Z,41.60
2018-07-02T01:27:53.597Z,41.80
2018-07-02T01:30:22.041Z,41.60
2018-07-02T01:32:50.422Z,41.60
2018-07-02T01:35:18.817Z,41.40
2018-07-02T01:37:47.128Z,41.70
2018-07-02T01:40:15.408Z,41.70
2018-07-02T01:42:43.803Z,41.60
2018-07-02T01:45:12.635Z,41.60
2018-07-02T01:47:40.889Z,41.80
2018-07-02T01:50:10.168Z,41.70
2018-07-02T01:52:38.483Z,41.70
2018-07-02T01:55:06.884Z,41.70
2018-07-02T01:57:35.250Z,41.40
2018-07-02T02:00:03.596Z,41.80
2018-07-02T02:05:00.057Z,41.70
2018-07-02T02:07:28.364Z,41.80
2018-07-02T02:09:56.648Z,41.70
2018-07-02T02:12:24.965Z,41.70
2018-07-02T02:14:53.424Z,41.50
2018-07-02T02:17:21.771Z,41.80
2018-07-02T02:19:50.117Z,41.60
2018-07-02T02:22:18.396Z,41.70
2018-07-02T02:24:46.763Z,41.70
2018-07-02T02:27:15.082Z,41.90
2018-07-02T02:29:43.541Z,42.00
2018-07-02T02:32:11.845Z,41.60
2018-07-02T02:34:40.097Z,42.00
2018-07-02T02:37:08.445Z,42.20
2018-07-02T02:39:37.483Z,42.10
2018-07-02T02:42:06.723Z,41.40
2018-07-02T02:44:35.066Z,42.30
2018-07-02T02:47:03.580Z,42.10
2018-07-02T02:49:31.918Z,42.00
2018-07-02T02:52:00.242Z,42.10
2018-07-02T02:54:30.539Z,42.10
2018-07-02T02:56:58.881Z,42.20
2018-07-02T02:59:27.209Z,42.30
2018-07-02T03:01:55.553Z,42.40
2018-07-02T03:04:23.841Z,42.10
2018-07-02T03:06:52.261Z,42.30
2018-07-02T03:09:20.543Z,42.00
2018-07-02T03:11:48.877Z,42.40
2018-07-02T03:14:17.239Z,42.50
2018-07-02T03:16:45.584Z,42.70
2018-07-02T03:19:13.936Z,42.50
2018-07-02T03:21:42.214Z,42.50
2018-07-02T03:26:38.613Z,42.30
2018-07-02T03:29:06.973Z,42.60
2018-07-02T03:31:35.312Z,42.60
2018-07-02T03:34:03.746Z,42.70
2018-07-02T03:36:32.021Z,42.50
2018-07-02T03:39:00.281Z,42.60
2018-07-02T03:41:28.542Z,42.70
2018-07-02T03:43:56.800Z,42.90
2018-07-02T03:46:25.156Z,42.70
2018-07-02T03:48:53.444Z,42.80
2018-07-02T03:51:21.888Z,42.70
2018-07-02T03:53:50.225Z,42.60
2018-07-02T03:56:18.580Z,42.70
2018-07-02T03:58:46.857Z,42.70
2018-07-02T04:01:15.204Z,42.80
2018-07-02T04:03:43.437Z,42.80
2018-07-02T04:06:11.862Z,42.90
2018-07-02T04:08:40.417Z,42.50
2018-07-02T04:11:08.747Z,43.00
2018-07-02T04:16:05.561Z,43.10
2018-07-02T04:18:34.754Z,43.10
2018-07-02T04:21:03.082Z,43.10
2018-07-02T04:23:31.520Z,43.20
2018-07-02T04:26:00.831Z,42.90
2018-07-02T04:28:29.104Z,43.30
2018-07-02T04:30:57.384Z,43.30
2018-07-02T04:33:25.890Z,42.70
2018-07-02T04:35:55.752Z,43.20
2018-07-02T04:38:24.100Z,43.20
2018-07-02T04:40:52.422Z,43.30
2018-07-02T04:43:20.730Z,43.10
2018-07-02T04:45:49.030Z,43.10
2018-07-02T04:48:18.305Z,43.20
2018-07-02T04:50:46.650Z,43.30
2018-07-02T04:53:14.889Z,43.30
2018-07-02T04:55:44.173Z,42.90
2018-07-02T04:58:13.237Z,42.80
2018-07-02T05:00:41.534Z,42.80
2018-07-02T05:03:09.885Z,42.50
2018-07-02T05:05:38.207Z,43.00
2018-07-02T05:08:06.514Z,42.70
2018-07-02T05:10:34.849Z,42.80
2018-07-02T05:13:03.134Z,42.80
2018-07-02T05:15:31.460Z,42.70
2018-07-02T05:17:59.865Z,42.90
2018-07-02T05:20:28.196Z,43.10
2018-07-02T05:22:56.545Z,42.90
2018-07-02T05:25:24.856Z,43.10
2018-07-02T05:27:53.825Z,43.10
2018-07-02T05:30:22.172Z,43.00
2018-07-02T05:32:50.476Z,42.40
2018-07-02T05:35:18.836Z,43.00
2018-07-02T05:37:47.280Z,43.30
2018-07-02T05:40:16.632Z,43.30
2018-07-02T05:42:44.974Z,43.40
2018-07-02T05:45:13.278Z,43.40
2018-07-02T05:47:41.629Z,44.10
2018-07-02T05:50:10.586Z,43.50
2018-07-02T05:52:39.012Z,43.60
2018-07-02T05:55:07.290Z,43.60
2018-07-02T05:57:35.881Z,43.50
2018-07-02T06:00:04.594Z,42.70
2018-07-02T06:02:34.226Z,43.40
2018-07-02T06:05:02.711Z,43.80
2018-07-02T06:07:31.040Z,43.70
2018-07-02T06:10:00.362Z,43.80
2018-07-02T06:12:28.641Z,43.70
2018-07-02T06:14:56.925Z,43.60
2018-07-02T06:17:25.465Z,43.50
2018-07-02T06:19:53.807Z,43.40
2018-07-02T06:22:22.103Z,43.60
2018-07-02T06:24:50.480Z,43.20
2018-07-02T06:27:18.750Z,43.30
2018-07-02T06:29:47.051Z,43.30
2018-07-02T06:34:43.341Z,43.30
2018-07-02T06:37:11.638Z,43.30
2018-07-02T06:39:39.921Z,43.30
2018-07-02T06:42:09.205Z,43.30
2018-07-02T06:47:05.806Z,43.50
2018-07-02T06:49:34.069Z,43.60
2018-07-02T06:52:02.395Z,43.60
2018-07-02T06:54:30.797Z,43.60
2018-07-02T06:56:59.243Z,43.60
2018-07-02T06:59:27.576Z,43.60
2018-07-02T07:01:55.880Z,43.40
2018-07-02T07:04:24.244Z,44.00
2018-07-02T07:06:53.277Z,43.40
2018-07-02T07:09:21.559Z,43.40
2018-07-02T07:11:49.797Z,43.30
2018-07-02T07:14:18.148Z,43.40
2018-07-02T07:16:46.486Z,43.40
2018-07-02T07:19:14.834Z,43.30
2018-07-02T07:21:43.134Z,43.10
2018-07-02T07:24:11.649Z,43.40
2018-07-02T07:26:39.996Z,43.40
2018-07-02T07:29:08.356Z,43.20
2018-07-02T07:31:36.706Z,43.30
2018-07-02T07:34:05.081Z,43.30
2018-07-02T07:36:33.393Z,43.30
2018-07-02T07:39:01.782Z,43.10
2018-07-02T07:41:30.105Z,43.30
2018-07-02T07:43:58.436Z,43.20
2018-07-02T07:46:26.814Z,43.20
2018-07-02T07:48:55.227Z,43.10
2018-07-02T07:51:23.488Z,43.10
2018-07-02T07:53:53.016Z,43.10
2018-07-02T07:56:21.307Z,43.10
2018-07-02T07:58:50.684Z,43.10
2018-07-02T08:01:19.083Z,43.20
2018-07-02T08:03:48.204Z,43.20
2018-07-02T08:06:19.373Z,43.80
2018-07-02T08:08:47.707Z,43.10
2018-07-02T08:11:16.724Z,43.10
2018-07-02T08:13:45.129Z,43.40
2018-07-02T08:16:14.870Z,43.40
2018-07-02T08:18:43.188Z,43.20
2018-07-02T08:21:11.813Z,43.70
2018-07-02T08:23:40.160Z,43.00
2018-07-02T08:26:09.157Z,43.40
2018-07-02T08:28:37.926Z,43.30
2018-07-02T08:31:06.283Z,43.30
2018-07-02T08:33:35.976Z,43.40
2018-07-02T08:36:04.328Z,43.40
2018-07-02T08:38:32.725Z,43.40
2018-07-02T08:43:29.084Z,43.40
2018-07-02T08:45:57.796Z,42.90
2018-07-02T08:48:26.091Z,43.40
2018-07-02T08:50:54.333Z,43.30
2018-07-02T08:53:22.701Z,43.30
2018-07-02T08:55:51.795Z,43.40
2018-07-02T08:58:20.291Z,43.00
2018-07-02T09:00:48.573Z,43.20
2018-07-02T09:03:17.296Z,43.20
2018-07-02T09:05:45.657Z,43.70
2018-07-02T09:08:14.093Z,43.10
2018-07-02T09:10:42.395Z,43.00
2018-07-02T09:13:10.660Z,43.20
2018-07-02T09:15:39.484Z,43.10
2018-07-02T09:18:07.877Z,43.20
2018-07-02T09:20:36.245Z,43.00
2018-07-02T09:23:04.580Z,43.00
2018-07-02T09:25:33.024Z,42.60
2018-07-02T09:28:01.238Z,43.00
2018-07-02T09:30:30.112Z,43.00
2018-07-02T09:32:58.700Z,43.10
2018-07-02T09:35:26.950Z,42.70
2018-07-02T09:37:55.538Z,42.40
2018-07-02T09:40:24.041Z,42.90
2018-07-02T09:42:52.487Z,42.80
2018-07-02T09:45:21.080Z,42.80
2018-07-02T09:47:49.579Z,42.70
2018-07-02T09:50:19.466Z,42.80
2018-07-02T09:52:48.145Z,42.60
2018-07-02T09:55:16.772Z,42.80
2018-07-02T09:57:46.097Z,42.60
2018-07-02T10:00:14.468Z,42.60
2018-07-02T10:02:43.176Z,42.30
2018-07-02T10:05:11.573Z,42.30
2018-07-02T10:10:08.966Z,42.50
2018-07-02T10:12:37.384Z,42.50
2018-07-02T10:15:06.269Z,42.30
2018-07-02T10:17:35.044Z,42.40
2018-07-02T10:20:03.613Z,42.10
2018-07-02T10:22:32.316Z,42.10
2018-07-02T10:25:01.213Z,42.00
2018-07-02T10:27:30.549Z,41.90
2018-07-02T10:29:59.549Z,41.70
2018-07-02T10:32:28.087Z,41.90
2018-07-02T10:34:56.389Z,42.20
2018-07-02T10:37:24.960Z,41.70
2018-07-02T10:39:54.362Z,41.90
2018-07-02T10:42:22.801Z,41.50
2018-07-02T10:44:51.806Z,42.30
2018-07-02T10:47:20.823Z,42.40
2018-07-02T10:49:49.144Z,41.10
2018-07-02T10:52:17.476Z,41.70
2018-07-02T10:54:45.776Z,41.50
2018-07-02T10:57:14.102Z,40.50
2018-07-02T10:59:43.447Z,41.50
2018-07-02T11:02:12.455Z,41.30
2018-07-02T11:04:40.801Z,41.50
2018-07-02T11:07:09.097Z,41.30
2018-07-02T11:09:37.431Z,41.00
2018-07-02T11:12:06.641Z,41.10
2018-07-02T11:14:34.948Z,41.10
2018-07-02T11:17:03.355Z,40.50
2018-07-02T11:19:33.387Z,40.90
2018-07-02T11:22:01.694Z,37.50
2018-07-02T11:24:30.337Z,39.00
2018-07-02T11:26:59.758Z,39.10
2018-07-02T11:29:28.394Z,37.80
2018-07-02T11:31:56.708Z,37.80
2018-07-02T11:34:24.972Z,39.50
2018-07-02T11:36:53.336Z,39.80
2018-07-02T11:41:49.751Z,36.30
2018-07-02T11:44:18.101Z,39.40
2018-07-02T11:46:46.506Z,39.20
2018-07-02T11:49:15.470Z,39.40
2018-07-02T11:51:44.047Z,39.50
2018-07-02T11:54:13.194Z,40.60
2018-07-02T11:56:41.933Z,39.90
2018-07-02T11:59:10.409Z,39.50
2018-07-02T12:01:38.963Z,33.90
2018-07-02T12:04:07.508Z,38.90
2018-07-02T12:06:35.780Z,34.80
2018-07-02T12:09:06.363Z,39.60
2018-07-02T12:11:34.757Z,39.30
2018-07-02T12:14:03.468Z,39.50
2018-07-02T12:16:32.146Z,39.90
2018-07-02T12:19:00.691Z,39.60
2018-07-02T12:21:29.076Z,39.40
2018-07-02T12:23:57.396Z,37.50
2018-07-02T12:26:26.357Z,38.50
2018-07-02T12:28:54.657Z,39.30
2018-07-02T12:31:23.232Z,39.60
2018-07-02T12:33:51.733Z,33.50
2018-07-02T12:36:23.088Z,32.50
2018-07-02T12:38:51.463Z,38.00
2018-07-02T12:41:21.619Z,39.00
2018-07-02T12:43:52.537Z,38.20
2018-07-02T12:46:20.968Z,39.10
2018-07-02T12:48:49.344Z,39.50
2018-07-02T12:51:17.645Z,38.60
2018-07-02T12:56:17.338Z,38.10
2018-07-02T12:58:45.722Z,37.70
2018-07-02T13:01:13.993Z,39.90
2018-07-02T13:03:42.276Z,37.70
2018-07-02T13:06:10.644Z,37.70
2018-07-02T13:08:38.906Z,39.30
2018-07-02T13:11:07.334Z,39.30
2018-07-02T13:13:35.745Z,39.50
2018-07-02T13:16:03.972Z,39.00
2018-07-02T13:18:32.353Z,39.10
2018-07-02T13:21:00.664Z,39.50
2018-07-02T13:23:30.151Z,39.30
2018-07-02T13:25:58.684Z,39.50
2018-07-02T13:28:27.488Z,39.20
2018-07-02T13:33:23.885Z,38.90
2018-07-02T13:35:52.173Z,39.00
2018-07-02T13:38:20.534Z,38.80
2018-07-02T13:40:49.653Z,38.70
2018-07-02T13:43:17.996Z,38.60
2018-07-02T13:45:46.436Z,37.90
2018-07-02T13:48:14.816Z,38.30
2018-07-02T13:50:43.171Z,38.80
2018-07-02T13:53:11.497Z,39.10
2018-07-02T13:55:41.224Z,39.20
2018-07-02T13:58:09.481Z,39.30
2018-07-02T14:00:39.633Z,38.60
2018-07-02T14:03:08.019Z,38.90
2018-07-02T14:05:36.397Z,39.20
2018-07-02T14:08:04.913Z,37.80
2018-07-02T14:10:33.431Z,39.10
2018-07-02T14:13:01.902Z,39.20
2018-07-02T14:15:30.523Z,39.30
2018-07-02T14:18:00.074Z,39.20
2018-07-02T14:22:56.934Z,39.30
2018-07-02T14:25:25.483Z,38.20
2018-07-02T14:27:53.916Z,39.00
2018-07-02T14:30:22.986Z,39.00
2018-07-02T14:32:51.389Z,39.90
2018-07-02T14:35:20.767Z,39.40
2018-07-02T14:37:49.261Z,39.50
2018-07-02T14:40:17.852Z,39.40
2018-07-02T14:42:46.856Z,39.60
2018-07-02T14:45:15.311Z,38.50
2018-07-02T14:47:43.461Z,39.40
2018-07-02T14:50:11.818Z,39.40
2018-07-02T14:52:40.925Z,38.90
2018-07-02T14:55:09.294Z,38.50
2018-07-02T14:57:37.653Z,39.40
2018-07-02T15:00:06.218Z,39.10
2018-07-02T15:02:34.974Z,37.60
2018-07-02T15:05:03.430Z,39.20
2018-07-02T15:07:31.840Z,39.70
2018-07-02T15:10:00.207Z,39.80
2018-07-02T15:12:28.732Z,40.20
2018-07-02T15:14:57.231Z,40.70
2018-07-02T15:17:25.549Z,40.20
2018-07-02T15:19:53.983Z,40.20
2018-07-02T15:22:22.272Z,39.90
2018-07-02T15:24:51.136Z,39.60
2018-07-02T15:27:19.508Z,38.70
2018-07-02T15:32:15.914Z,39.80
2018-07-02T15:34:44.248Z,39.60
2018-07-02T15:37:12.853Z,39.40
2018-07-02T15:39:41.261Z,39.60
2018-07-02T15:42:09.609Z,39.70
2018-07-02T15:47:06.783Z,39.90
2018-07-02T15:49:35.518Z,39.90
2018-07-02T15:52:04.175Z,39.90
2018-07-02T15:54:32.496Z,40.60
2018-07-02T15:57:00.931Z,39.90
2018-07-02T15:59:29.565Z,40.50
2018-07-02T16:01:58.660Z,39.50
2018-07-02T16:04:26.950Z,39.80
2018-07-02T16:06:55.267Z,40.10
2018-07-02T16:09:23.996Z,39.80
2018-07-02T16:11:52.586Z,40.50
2018-07-02T16:14:20.965Z,40.40
2018-07-02T16:16:49.276Z,40.70
2018-07-02T16:19:17.579Z,40.50
2018-07-02T16:21:45.987Z,40.40
2018-07-02T16:24:14.494Z,40.40
2018-07-02T16:26:42.828Z,40.60
2018-07-02T16:29:11.141Z,39.90
2018-07-02T16:31:39.480Z,40.10
2018-07-02T16:34:07.941Z,40.00
2018-07-02T16:36:36.235Z,40.10
2018-07-02T16:39:08.460Z,40.20
2018-07-02T16:41:37.262Z,40.30
2018-07-02T16:44:05.954Z,40.20
2018-07-02T16:46:35.169Z,40.10
2018-07-02T16:49:03.650Z,40.10
2018-07-02T16:51:33.319Z,39.90
2018-07-02T16:54:03.009Z,40.00
2018-07-02T16:56:31.344Z,39.30
2018-07-02T16:58:59.957Z,40.10
2018-07-02T17:01:28.374Z,39.70
2018-07-02T17:03:56.854Z,40.20
2018-07-02T17:06:25.375Z,40.20
2018-07-02T17:08:53.775Z,40.30
2018-07-02T17:11:22.959Z,40.40
2018-07-02T17:13:51.549Z,40.40
2018-07-02T17:16:21.402Z,40.40
2018-07-02T17:18:50.924Z,40.20
2018-07-02T17:21:22.189Z,40.20
2018-07-02T17:23:50.513Z,40.10
2018-07-02T17:26:18.816Z,40.00
2018-07-02T17:31:15.148Z,39.70
2018-07-02T17:33:43.476Z,39.70
2018-07-02T17:36:11.900Z,39.60
2018-07-02T17:38:40.318Z,39.80
2018-07-02T17:41:08.654Z,39.00
2018-07-02T17:43:36.970Z,40.00
2018-07-02T17:46:05.304Z,39.90
2018-07-02T17:48:36.195Z,40.00
2018-07-02T17:51:04.484Z,39.90
2018-07-02T17:53:32.922Z,40.20
2018-07-02T17:56:01.193Z,40.40
2018-07-02T17:58:29.529Z,40.50
2018-07-02T18:00:57.832Z,40.50
2018-07-02T18:03:26.212Z,40.30
2018-07-02T18:05:54.525Z,40.00
2018-07-02T18:08:22.831Z,40.20
2018-07-02T18:10:51.152Z,39.20
2018-07-02T18:13:19.472Z,39.10
2018-07-02T18:15:47.860Z,39.30
2018-07-02T18:18:16.390Z,36.60
2018-07-02T18:20:44.788Z,38.50
2018-07-02T18:23:13.513Z,39.40
2018-07-02T18:25:41.876Z,37.90
2018-07-02T18:28:10.273Z,37.50
2018-07-02T18:30:38.712Z,38.70
2018-07-02T18:33:07.211Z,36.70
2018-07-02T18:35:35.502Z,36.10
2018-07-02T18:38:03.874Z,39.50
2018-07-02T18:40:32.169Z,37.10
2018-07-02T18:43:00.661Z,38.50
2018-07-02T18:45:29.728Z,38.50
2018-07-02T18:47:57.981Z,40.40
2018-07-02T18:50:26.400Z,38.90
2018-07-02T18:52:54.722Z,39.70
2018-07-02T18:55:23.131Z,38.50
2018-07-02T18:57:51.426Z,38.80
2018-07-02T19:00:19.880Z,39.20
2018-07-02T19:02:48.275Z,39.50
2018-07-02T19:05:16.597Z,40.80
2018-07-02T19:07:44.877Z,40.50
2018-07-02T19:10:14.391Z,40.80
2018-07-02T19:12:42.915Z,41.70
2018-07-02T19:15:11.257Z,41.40
2018-07-02T19:17:39.580Z,41.40
2018-07-02T19:20:08.278Z,41.10
2018-07-02T19:22:36.572Z,40.80
2018-07-02T19:25:05.301Z,40.70
2018-07-02T19:27:33.643Z,40.50
2018-07-02T19:30:02.048Z,40.50
2018-07-02T19:32:30.335Z,40.40
2018-07-02T19:34:58.668Z,40.40
2018-07-02T19:37:27.096Z,40.30
2018-07-02T19:39:56.189Z,40.40
2018-07-02T19:42:24.552Z,40.50
2018-07-02T19:44:52.892Z,40.50
2018-07-02T19:47:21.265Z,40.40
2018-07-02T19:49:50.401Z,40.30
2018-07-02T19:52:18.725Z,41.00
2018-07-02T19:54:47.066Z,40.20
2018-07-02T19:57:15.375Z,40.20
2018-07-02T19:59:43.730Z,40.20
2018-07-02T20:02:12.145Z,40.20
2018-07-02T20:04:40.433Z,40.20
2018-07-02T20:07:08.820Z,40.80
2018-07-02T20:09:38.000Z,40.20
2018-07-02T20:12:06.438Z,40.20
2018-07-02T20:14:34.714Z,40.30
2018-07-02T20:17:03.092Z,40.30
2018-07-02T20:19:31.392Z,40.00
2018-07-02T20:21:59.726Z,40.30
2018-07-02T20:24:28.026Z,40.20
2018-07-02T20:26:56.380Z,40.40
2018-07-02T20:29:24.630Z,40.40
2018-07-02T20:31:52.930Z,40.40
2018-07-02T20:34:21.249Z,40.40
2018-07-02T20:36:49.609Z,40.50
2018-07-02T20:39:17.920Z,40.50
2018-07-02T20:41:46.202Z,40.50
2018-07-02T20:44:14.588Z,40.50
2018-07-02T20:46:42.849Z,40.40
2018-07-02T20:49:11.864Z,40.50
2018-07-02T20:51:40.169Z,41.20
2018-07-02T20:54:09.388Z,40.50
2018-07-02T20:56:37.809Z,40.40
2018-07-02T20:59:06.122Z,40.50
2018-07-02T21:01:34.805Z,40.50
2018-07-02T21:04:03.396Z,40.20
2018-07-02T21:06:31.749Z,40.30
2018-07-02T21:09:00.129Z,40.40
2018-07-02T21:11:28.388Z,40.40
2018-07-02T21:16:24.773Z,40.40
2018-07-02T21:18:53.103Z,40.40
2018-07-02T21:21:21.691Z,40.30
2018-07-02T21:23:50.500Z,40.30
2018-07-02T21:26:19.067Z,40.30
2018-07-02T21:28:47.374Z,40.30
2018-07-02T21:31:15.635Z,40.30
2018-07-02T21:33:43.913Z,40.30
2018-07-02T21:36:12.219Z,40.30
2018-07-02T21:38:40.464Z,40.20
2018-07-02T21:41:08.786Z,40.20
2018-07-02T21:43:37.147Z,40.30
2018-07-02T21:46:05.449Z,40.30
2018-07-02T21:48:33.937Z,40.00
2018-07-02T21:51:02.258Z,40.50
2018-07-02T21:53:30.540Z,40.10
2018-07-02T21:55:59.021Z,40.50
2018-07-02T21:58:28.318Z,40.20
2018-07-02T22:00:56.620Z,40.60
2018-07-02T22:03:24.944Z,40.40
2018-07-02T22:05:53.923Z,40.70
2018-07-02T22:08:22.330Z,40.70
2018-07-02T22:10:50.676Z,40.70
2018-07-02T22:13:19.125Z,40.70
2018-07-02T22:15:47.536Z,40.70
2018-07-02T22:18:15.849Z,40.60
2018-07-02T22:20:44.277Z,40.60
2018-07-02T22:23:12.564Z,40.50
2018-07-02T22:25:40.844Z,40.60
2018-07-02T22:28:09.145Z,40.60
2018-07-02T22:30:37.425Z,40.60
2018-07-02T22:33:05.789Z,40.60
2018-07-02T22:35:34.334Z,40.60
2018-07-02T22:38:02.593Z,40.60
2018-07-02T22:40:30.899Z,40.60
2018-07-02T22:42:59.224Z,40.60
2018-07-02T22:45:27.577Z,40.70
2018-07-02T22:47:55.900Z,40.70
2018-07-02T22:50:24.236Z,40.70
2018-07-02T22:52:52.713Z,40.70
2018-07-02T22:55:20.973Z,40.70
2018-07-02T22:57:49.272Z,40.70
2018-07-02T23:00:17.520Z,40.70
2018-07-02T23:02:45.967Z,40.80
2018-07-02T23:05:14.236Z,40.70
2018-07-02T23:07:42.545Z,40.80
2018-07-02T23:10:10.844Z,40.80
2018-07-02T23:12:39.120Z,40.90
2018-07-02T23:15:07.441Z,40.80
2018-07-02T23:17:35.689Z,40.90
2018-07-02T23:20:03.994Z,40.80
2018-07-02T23:23:04.994Z,40.90
2018-07-02T23:25:33.268Z,40.80
2018-07-02T23:28:02.529Z,40.80
2018-07-02T23:30:31.852Z,41.50
2018-07-02T23:33:00.366Z,41.00
2018-07-02T23:35:28.703Z,40.80
2018-07-02T23:37:56.872Z,41.50
2018-07-02T23:40:25.945Z,40.90
2018-07-02T23:42:54.997Z,41.00
2018-07-02T23:45:24.217Z,41.00
2018-07-02T23:47:52.496Z,41.00
2018-07-02T23:50:20.786Z,41.10
2018-07-02T23:52:49.081Z,41.00
2018-07-02T23:55:17.407Z,41.00
2018-07-02T23:57:45.652Z,41.10
